sensor_id;sensor_type;location;lat;lon;timestamp;temperature;humidity
2391;DHT22;22957;50.824;4.360;2023-06-05T00:01:12;17.20;99.90
2391;DHT22;22957;50.824;4.360;2023-06-05T00:03:38;16.50;99.90
2391;DHT22;22957;50.824;4.360;2023-06-05T00:06:05;16.30;99.90
2391;DHT22;22957;50.824;4.360;2023-06-05T00:08:31;16.70;99.90
2391;DHT22;22957;50.824;4.360;2023-06-05T00:10:57;15.90;99.90
2391;DHT22;22957;50.824;4.360;2023-06-05T00:13:23;16.00;99.90
2391;DHT22;22957;50.824;4.360;2023-06-05T00:15:48;15.80;99.90
2391;DHT22;22957;50.824;4.360;2023-06-05T00:18:15;16.10;99.90
2391;DHT22;22957;50.824;4.360;2023-06-05T00:20:41;16.20;99.90
2391;DHT22;22957;50.824;4.360;2023-06-05T00:23:08;15.80;99.90
2391;DHT22;22957;50.824;4.360;2023-06-05T00:25:33;15.90;99.90
2391;DHT22;22957;50.824;4.360;2023-06-05T00:27:59;16.00;99.90
2391;DHT22;22957;50.824;4.360;2023-06-05T00:30:25;16.50;99.90
2391;DHT22;22957;50.824;4.360;2023-06-05T00:32:50;15.70;99.90
2391;DHT22;22957;50.824;4.360;2023-06-05T00:35:16;16.10;99.90
2391;DHT22;22957;50.824;4.360;2023-06-05T00:37:42;15.90;99.90
2391;DHT22;22957;50.824;4.360;2023-06-05T00:40:09;16.40;99.90
2391;DHT22;22957;50.824;4.360;2023-06-05T00:42:34;15.40;99.90
2391;DHT22;22957;50.824;4.360;2023-06-05T00:45:00;15.60;99.90
2391;DHT22;22957;50.824;4.360;2023-06-05T00:47:26;16.60;99.90
2391;DHT22;22957;50.824;4.360;2023-06-05T00:49:52;16.90;99.90
2391;DHT22;22957;50.824;4.360;2023-06-05T00:52:18;16.90;99.90
2391;DHT22;22957;50.824;4.360;2023-06-05T00:54:43;16.30;99.90
2391;DHT22;22957;50.824;4.360;2023-06-05T00:57:09;16.30;99.90
2391;DHT22;22957;50.824;4.360;2023-06-05T00:59:36;16.60;99.90
2391;DHT22;22957;50.824;4.360;2023-06-05T01:02:02;15.50;99.90
2391;DHT22;22957;50.824;4.360;2023-06-05T01:04:30;16.00;99.90
2391;DHT22;22957;50.824;4.360;2023-06-05T01:06:58;16.10;99.90
2391;DHT22;22957;50.824;4.360;2023-06-05T01:09:26;17.00;99.90
2391;DHT22;22957;50.824;4.360;2023-06-05T01:12:00;16.60;99.90
2391;DHT22;22957;50.824;4.360;2023-06-05T01:14:30;16.40;99.90
2391;DHT22;22957;50.824;4.360;2023-06-05T01:16:59;16.50;99.90
2391;DHT22;22957;50.824;4.360;2023-06-05T01:19:29;16.30;99.90
2391;DHT22;22957;50.824;4.360;2023-06-05T01:21:57;16.50;99.90
2391;DHT22;22957;50.824;4.360;2023-06-05T01:24:23;16.10;99.90
2391;DHT22;22957;50.824;4.360;2023-06-05T01:26:53;16.70;99.90
2391;DHT22;22957;50.824;4.360;2023-06-05T01:32:36;15.80;99.90
2391;DHT22;22957;50.824;4.360;2023-06-05T01:35:08;16.00;99.90
2391;DHT22;22957;50.824;4.360;2023-06-05T01:37:37;15.90;99.90
2391;DHT22;22957;50.824;4.360;2023-06-05T01:40:11;16.10;99.90
2391;DHT22;22957;50.824;4.360;2023-06-05T01:42:38;15.10;99.90
2391;DHT22;22957;50.824;4.360;2023-06-05T01:45:06;15.50;99.90
2391;DHT22;22957;50.824;4.360;2023-06-05T01:47:33;15.40;99.90
2391;DHT22;22957;50.824;4.360;2023-06-05T01:50:00;15.10;99.90
2391;DHT22;22957;50.824;4.360;2023-06-05T01:52:25;15.20;99.90
2391;DHT22;22957;50.824;4.360;2023-06-05T01:54:51;15.40;99.90
2391;DHT22;22957;50.824;4.360;2023-06-05T01:57:18;15.10;99.90
2391;DHT22;22957;50.824;4.360;2023-06-05T01:59:43;15.20;99.90
2391;DHT22;22957;50.824;4.360;2023-06-05T02:02:11;15.10;99.90
2391;DHT22;22957;50.824;4.360;2023-06-05T02:04:37;14.90;99.90
2391;DHT22;22957;50.824;4.360;2023-06-05T02:07:03;15.10;99.90
2391;DHT22;22957;50.824;4.360;2023-06-05T02:09:30;15.40;99.90
2391;DHT22;22957;50.824;4.360;2023-06-05T02:11:59;14.70;99.90
2391;DHT22;22957;50.824;4.360;2023-06-05T02:14:30;14.20;99.90
2391;DHT22;22957;50.824;4.360;2023-06-05T02:16:57;15.30;99.90
2391;DHT22;22957;50.824;4.360;2023-06-05T02:19:24;14.90;99.90
2391;DHT22;22957;50.824;4.360;2023-06-05T02:21:49;14.50;99.90
2391;DHT22;22957;50.824;4.360;2023-06-05T02:24:17;14.10;99.90
2391;DHT22;22957;50.824;4.360;2023-06-05T02:26:44;14.20;99.90
2391;DHT22;22957;50.824;4.360;2023-06-05T02:29:09;14.10;99.90
2391;DHT22;22957;50.824;4.360;2023-06-05T02:31:35;14.90;99.90
2391;DHT22;22957;50.824;4.360;2023-06-05T02:34:02;15.00;99.90
2391;DHT22;22957;50.824;4.360;2023-06-05T02:36:28;14.70;99.90
2391;DHT22;22957;50.824;4.360;2023-06-05T02:38:58;14.80;99.90
2391;DHT22;22957;50.824;4.360;2023-06-05T02:41:24;15.40;99.90
2391;DHT22;22957;50.824;4.360;2023-06-05T02:43:50;14.90;99.90
2391;DHT22;22957;50.824;4.360;2023-06-05T02:46:15;14.50;99.90
2391;DHT22;22957;50.824;4.360;2023-06-05T02:48:41;15.00;99.90
2391;DHT22;22957;50.824;4.360;2023-06-05T02:51:06;14.50;99.90
2391;DHT22;22957;50.824;4.360;2023-06-05T02:53:32;14.50;99.90
2391;DHT22;22957;50.824;4.360;2023-06-05T02:55:58;14.80;99.90
2391;DHT22;22957;50.824;4.360;2023-06-05T02:58:26;15.20;99.90
2391;DHT22;22957;50.824;4.360;2023-06-05T03:00:54;15.20;99.90
2391;DHT22;22957;50.824;4.360;2023-06-05T03:03:22;14.20;99.90
2391;DHT22;22957;50.824;4.360;2023-06-05T03:05:52;14.50;99.90
2391;DHT22;22957;50.824;4.360;2023-06-05T03:08:18;14.70;99.90
2391;DHT22;22957;50.824;4.360;2023-06-05T03:10:43;14.30;99.90
2391;DHT22;22957;50.824;4.360;2023-06-05T03:13:09;14.50;99.90
2391;DHT22;22957;50.824;4.360;2023-06-05T03:15:35;14.00;99.90
2391;DHT22;22957;50.824;4.360;2023-06-05T03:18:00;14.40;99.90
2391;DHT22;22957;50.824;4.360;2023-06-05T03:20:26;13.80;99.90
2391;DHT22;22957;50.824;4.360;2023-06-05T03:22:51;14.70;99.90
2391;DHT22;22957;50.824;4.360;2023-06-05T03:25:17;13.80;99.90
2391;DHT22;22957;50.824;4.360;2023-06-05T03:27:43;14.20;99.90
2391;DHT22;22957;50.824;4.360;2023-06-05T03:30:09;13.90;99.90
2391;DHT22;22957;50.824;4.360;2023-06-05T03:32:37;14.30;99.90
2391;DHT22;22957;50.824;4.360;2023-06-05T03:35:02;13.40;99.90
2391;DHT22;22957;50.824;4.360;2023-06-05T03:37:29;13.70;99.90
2391;DHT22;22957;50.824;4.360;2023-06-05T03:39:54;13.80;99.90
2391;DHT22;22957;50.824;4.360;2023-06-05T03:42:20;13.50;99.90
2391;DHT22;22957;50.824;4.360;2023-06-05T03:44:45;13.80;99.90
2391;DHT22;22957;50.824;4.360;2023-06-05T03:47:11;14.00;99.90
2391;DHT22;22957;50.824;4.360;2023-06-05T03:49:40;13.90;99.90
2391;DHT22;22957;50.824;4.360;2023-06-05T03:52:13;14.30;99.90
2391;DHT22;22957;50.824;4.360;2023-06-05T03:54:41;14.00;99.90
2391;DHT22;22957;50.824;4.360;2023-06-05T03:57:11;14.00;99.90
2391;DHT22;22957;50.824;4.360;2023-06-05T03:59:37;14.10;99.90
2391;DHT22;22957;50.824;4.360;2023-06-05T04:02:03;13.90;99.90
2391;DHT22;22957;50.824;4.360;2023-06-05T04:04:30;13.30;99.90
2391;DHT22;22957;50.824;4.360;2023-06-05T04:06:55;13.80;99.90
2391;DHT22;22957;50.824;4.360;2023-06-05T04:09:21;13.00;99.90
2391;DHT22;22957;50.824;4.360;2023-06-05T04:11:48;14.00;99.90
2391;DHT22;22957;50.824;4.360;2023-06-05T04:14:14;14.60;99.90
2391;DHT22;22957;50.824;4.360;2023-06-05T04:16:41;14.90;99.90
2391;DHT22;22957;50.824;4.360;2023-06-05T04:19:09;14.00;99.90
2391;DHT22;22957;50.824;4.360;2023-06-05T04:21:36;14.20;99.90
2391;DHT22;22957;50.824;4.360;2023-06-05T04:24:06;14.70;99.90
2391;DHT22;22957;50.824;4.360;2023-06-05T04:26:34;14.40;99.90
2391;DHT22;22957;50.824;4.360;2023-06-05T04:29:00;14.60;99.90
2391;DHT22;22957;50.824;4.360;2023-06-05T04:31:29;15.00;99.90
2391;DHT22;22957;50.824;4.360;2023-06-05T04:33:55;14.50;99.90
2391;DHT22;22957;50.824;4.360;2023-06-05T04:36:22;15.00;99.90
2391;DHT22;22957;50.824;4.360;2023-06-05T04:38:47;15.30;99.90
2391;DHT22;22957;50.824;4.360;2023-06-05T04:41:13;14.60;99.90
2391;DHT22;22957;50.824;4.360;2023-06-05T04:43:39;15.10;99.90
2391;DHT22;22957;50.824;4.360;2023-06-05T04:46:05;16.30;99.90
2391;DHT22;22957;50.824;4.360;2023-06-05T04:48:30;15.30;99.90
2391;DHT22;22957;50.824;4.360;2023-06-05T04:50:56;15.00;99.90
2391;DHT22;22957;50.824;4.360;2023-06-05T04:53:22;15.90;99.90
2391;DHT22;22957;50.824;4.360;2023-06-05T04:55:47;15.60;99.90
2391;DHT22;22957;50.824;4.360;2023-06-05T04:58:14;16.00;99.90
2391;DHT22;22957;50.824;4.360;2023-06-05T05:00:44;16.70;99.90
2391;DHT22;22957;50.824;4.360;2023-06-05T05:03:10;15.30;99.90
2391;DHT22;22957;50.824;4.360;2023-06-05T05:05:39;14.60;99.90
2391;DHT22;22957;50.824;4.360;2023-06-05T05:08:04;15.50;99.90
2391;DHT22;22957;50.824;4.360;2023-06-05T05:10:31;14.40;99.90
2391;DHT22;22957;50.824;4.360;2023-06-05T05:12:56;15.60;99.90
2391;DHT22;22957;50.824;4.360;2023-06-05T05:15:22;16.00;99.90
2391;DHT22;22957;50.824;4.360;2023-06-05T05:17:48;16.90;99.90
2391;DHT22;22957;50.824;4.360;2023-06-05T05:20:14;15.80;99.90
2391;DHT22;22957;50.824;4.360;2023-06-05T05:22:40;16.00;99.90
2391;DHT22;22957;50.824;4.360;2023-06-05T05:25:06;15.90;99.90
2391;DHT22;22957;50.824;4.360;2023-06-05T05:27:32;15.70;99.90
2391;DHT22;22957;50.824;4.360;2023-06-05T05:29:57;16.00;99.90
2391;DHT22;22957;50.824;4.360;2023-06-05T05:32:23;16.50;99.90
2391;DHT22;22957;50.824;4.360;2023-06-05T05:34:48;17.80;99.90
2391;DHT22;22957;50.824;4.360;2023-06-05T05:37:16;16.90;99.90
2391;DHT22;22957;50.824;4.360;2023-06-05T05:39:41;18.30;99.90
2391;DHT22;22957;50.824;4.360;2023-06-05T05:42:07;19.30;99.90
2391;DHT22;22957;50.824;4.360;2023-06-05T05:44:32;17.50;99.90
2391;DHT22;22957;50.824;4.360;2023-06-05T05:46:58;19.20;99.90
2391;DHT22;22957;50.824;4.360;2023-06-05T05:49:24;17.30;99.90
2391;DHT22;22957;50.824;4.360;2023-06-05T05:51:50;18.30;99.90
2391;DHT22;22957;50.824;4.360;2023-06-05T05:54:16;17.10;99.90
2391;DHT22;22957;50.824;4.360;2023-06-05T05:56:41;16.20;99.90
2391;DHT22;22957;50.824;4.360;2023-06-05T05:59:08;17.50;99.90
2391;DHT22;22957;50.824;4.360;2023-06-05T06:01:33;17.30;99.90
2391;DHT22;22957;50.824;4.360;2023-06-05T06:03:59;16.90;99.90
2391;DHT22;22957;50.824;4.360;2023-06-05T06:06:24;17.00;99.90
2391;DHT22;22957;50.824;4.360;2023-06-05T06:08:50;18.50;99.90
2391;DHT22;22957;50.824;4.360;2023-06-05T06:11:16;18.30;99.90
2391;DHT22;22957;50.824;4.360;2023-06-05T06:13:43;18.80;99.90
2391;DHT22;22957;50.824;4.360;2023-06-05T06:16:08;19.10;99.90
2391;DHT22;22957;50.824;4.360;2023-06-05T06:18:34;19.50;99.90
2391;DHT22;22957;50.824;4.360;2023-06-05T06:21:00;21.20;99.90
2391;DHT22;22957;50.824;4.360;2023-06-05T06:23:25;18.40;99.90
2391;DHT22;22957;50.824;4.360;2023-06-05T06:25:51;16.70;99.90
2391;DHT22;22957;50.824;4.360;2023-06-05T06:28:17;16.90;99.90
2391;DHT22;22957;50.824;4.360;2023-06-05T06:30:43;17.60;99.90
2391;DHT22;22957;50.824;4.360;2023-06-05T06:33:09;16.90;99.90
2391;DHT22;22957;50.824;4.360;2023-06-05T06:35:34;17.70;99.90
2391;DHT22;22957;50.824;4.360;2023-06-05T06:38:00;17.80;99.90
2391;DHT22;22957;50.824;4.360;2023-06-05T06:40:26;17.10;99.90
2391;DHT22;22957;50.824;4.360;2023-06-05T06:42:54;18.40;99.90
2391;DHT22;22957;50.824;4.360;2023-06-05T06:45:20;16.90;99.90
2391;DHT22;22957;50.824;4.360;2023-06-05T06:47:46;18.80;99.90
2391;DHT22;22957;50.824;4.360;2023-06-05T06:50:12;18.20;99.90
2391;DHT22;22957;50.824;4.360;2023-06-05T06:52:39;18.90;99.90
2391;DHT22;22957;50.824;4.360;2023-06-05T06:55:05;20.20;99.90
2391;DHT22;22957;50.824;4.360;2023-06-05T06:57:31;20.30;99.90
2391;DHT22;22957;50.824;4.360;2023-06-05T06:59:57;20.90;99.90
2391;DHT22;22957;50.824;4.360;2023-06-05T07:02:24;22.80;99.90
2391;DHT22;22957;50.824;4.360;2023-06-05T07:04:50;19.60;99.90
2391;DHT22;22957;50.824;4.360;2023-06-05T07:07:17;21.70;99.90
2391;DHT22;22957;50.824;4.360;2023-06-05T07:09:44;21.10;99.90
2391;DHT22;22957;50.824;4.360;2023-06-05T07:12:12;20.90;99.90
2391;DHT22;22957;50.824;4.360;2023-06-05T07:14:38;21.30;99.90
2391;DHT22;22957;50.824;4.360;2023-06-05T07:17:04;21.20;99.90
2391;DHT22;22957;50.824;4.360;2023-06-05T07:19:31;21.20;99.90
2391;DHT22;22957;50.824;4.360;2023-06-05T07:21:58;20.80;99.90
2391;DHT22;22957;50.824;4.360;2023-06-05T07:24:25;22.40;99.90
2391;DHT22;22957;50.824;4.360;2023-06-05T07:26:53;21.00;99.90
2391;DHT22;22957;50.824;4.360;2023-06-05T07:29:19;21.20;99.90
2391;DHT22;22957;50.824;4.360;2023-06-05T07:31:46;19.80;99.90
2391;DHT22;22957;50.824;4.360;2023-06-05T07:34:12;21.70;99.90
2391;DHT22;22957;50.824;4.360;2023-06-05T07:36:38;21.00;99.90
2391;DHT22;22957;50.824;4.360;2023-06-05T07:39:04;22.80;99.90
2391;DHT22;22957;50.824;4.360;2023-06-05T07:41:30;24.90;99.90
2391;DHT22;22957;50.824;4.360;2023-06-05T07:43:57;25.50;99.90
2391;DHT22;22957;50.824;4.360;2023-06-05T07:46:22;24.00;99.90
2391;DHT22;22957;50.824;4.360;2023-06-05T07:48:48;23.50;99.90
2391;DHT22;22957;50.824;4.360;2023-06-05T07:51:13;22.20;99.90
2391;DHT22;22957;50.824;4.360;2023-06-05T07:53:39;23.40;99.90
2391;DHT22;22957;50.824;4.360;2023-06-05T07:56:05;26.00;98.60
2391;DHT22;22957;50.824;4.360;2023-06-05T07:58:31;26.30;97.50
2391;DHT22;22957;50.824;4.360;2023-06-05T08:00:58;27.10;95.90
2391;DHT22;22957;50.824;4.360;2023-06-05T08:03:24;23.00;98.80
2391;DHT22;22957;50.824;4.360;2023-06-05T08:05:50;25.70;97.60
2391;DHT22;22957;50.824;4.360;2023-06-05T08:08:16;24.70;98.00
2391;DHT22;22957;50.824;4.360;2023-06-05T08:10:42;25.60;97.30
2391;DHT22;22957;50.824;4.360;2023-06-05T08:13:08;26.50;95.50
2391;DHT22;22957;50.824;4.360;2023-06-05T08:15:34;24.20;96.20
2391;DHT22;22957;50.824;4.360;2023-06-05T08:18:00;23.80;97.80
2391;DHT22;22957;50.824;4.360;2023-06-05T08:20:25;21.40;96.30
2391;DHT22;22957;50.824;4.360;2023-06-05T08:22:51;22.10;99.90
2391;DHT22;22957;50.824;4.360;2023-06-05T08:25:16;22.40;99.90
2391;DHT22;22957;50.824;4.360;2023-06-05T08:27:42;22.80;99.90
2391;DHT22;22957;50.824;4.360;2023-06-05T08:30:08;23.50;97.90
2391;DHT22;22957;50.824;4.360;2023-06-05T08:32:34;25.20;97.20
2391;DHT22;22957;50.824;4.360;2023-06-05T08:34:59;26.70;95.40
2391;DHT22;22957;50.824;4.360;2023-06-05T08:37:25;25.50;94.90
2391;DHT22;22957;50.824;4.360;2023-06-05T08:39:53;27.00;94.80
2391;DHT22;22957;50.824;4.360;2023-06-05T08:42:25;25.70;94.30
2391;DHT22;22957;50.824;4.360;2023-06-05T08:44:53;26.50;94.90
2391;DHT22;22957;50.824;4.360;2023-06-05T08:47:20;26.10;94.30
2391;DHT22;22957;50.824;4.360;2023-06-05T08:49:48;22.70;97.80
2391;DHT22;22957;50.824;4.360;2023-06-05T08:52:19;25.90;95.30
2391;DHT22;22957;50.824;4.360;2023-06-05T08:54:46;25.00;96.70
2391;DHT22;22957;50.824;4.360;2023-06-05T08:57:12;27.50;92.60
2391;DHT22;22957;50.824;4.360;2023-06-05T08:59:37;23.60;96.00
2391;DHT22;22957;50.824;4.360;2023-06-05T09:02:05;24.10;95.80
2391;DHT22;22957;50.824;4.360;2023-06-05T09:04:31;23.80;97.50
2391;DHT22;22957;50.824;4.360;2023-06-05T09:06:57;26.00;94.30
2391;DHT22;22957;50.824;4.360;2023-06-05T09:09:24;26.40;94.80
2391;DHT22;22957;50.824;4.360;2023-06-05T09:12:05;27.60;92.70
2391;DHT22;22957;50.824;4.360;2023-06-05T09:14:31;28.20;92.30
2391;DHT22;22957;50.824;4.360;2023-06-05T09:16:57;26.80;92.30
2391;DHT22;22957;50.824;4.360;2023-06-05T09:19:23;26.20;93.00
2391;DHT22;22957;50.824;4.360;2023-06-05T09:21:54;26.60;93.40
2391;DHT22;22957;50.824;4.360;2023-06-05T09:24:22;29.20;90.30
2391;DHT22;22957;50.824;4.360;2023-06-05T09:29:27;24.50;93.60
2391;DHT22;22957;50.824;4.360;2023-06-05T09:31:55;25.80;93.80
2391;DHT22;22957;50.824;4.360;2023-06-05T09:34:29;26.80;92.30
2391;DHT22;22957;50.824;4.360;2023-06-05T09:36:59;21.40;96.50
2391;DHT22;22957;50.824;4.360;2023-06-05T09:39:27;24.00;94.90
2391;DHT22;22957;50.824;4.360;2023-06-05T09:41:54;24.00;95.60
2391;DHT22;22957;50.824;4.360;2023-06-05T09:44:21;27.20;92.90
2391;DHT22;22957;50.824;4.360;2023-06-05T09:47:10;25.30;93.00
2391;DHT22;22957;50.824;4.360;2023-06-05T09:52:04;24.20;93.70
2391;DHT22;22957;50.824;4.360;2023-06-05T09:54:30;21.90;95.90
2391;DHT22;22957;50.824;4.360;2023-06-05T09:57:03;22.80;96.50
2391;DHT22;22957;50.824;4.360;2023-06-05T09:59:30;22.80;95.60
2391;DHT22;22957;50.824;4.360;2023-06-05T10:01:59;24.70;95.10
2391;DHT22;22957;50.824;4.360;2023-06-05T10:04:29;23.20;94.20
2391;DHT22;22957;50.824;4.360;2023-06-05T10:06:59;25.70;93.50
2391;DHT22;22957;50.824;4.360;2023-06-05T10:09:25;25.60;93.60
2391;DHT22;22957;50.824;4.360;2023-06-05T10:11:51;24.80;94.20
2391;DHT22;22957;50.824;4.360;2023-06-05T10:14:18;24.00;93.50
2391;DHT22;22957;50.824;4.360;2023-06-05T10:16:50;26.60;92.20
2391;DHT22;22957;50.824;4.360;2023-06-05T10:19:20;26.30;92.50
2391;DHT22;22957;50.824;4.360;2023-06-05T10:21:49;27.40;90.80
2391;DHT22;22957;50.824;4.360;2023-06-05T10:24:35;25.40;92.10
2391;DHT22;22957;50.824;4.360;2023-06-05T10:35:13;26.70;90.80
2391;DHT22;22957;50.824;4.360;2023-06-05T10:40:26;25.70;91.50
2391;DHT22;22957;50.824;4.360;2023-06-05T10:42:52;26.80;91.50
2391;DHT22;22957;50.824;4.360;2023-06-05T10:45:30;25.20;90.80
2391;DHT22;22957;50.824;4.360;2023-06-05T10:47:59;25.00;92.70
2391;DHT22;22957;50.824;4.360;2023-06-05T10:50:25;26.40;90.90
2391;DHT22;22957;50.824;4.360;2023-06-05T10:52:54;24.30;90.60
2391;DHT22;22957;50.824;4.360;2023-06-05T10:55:21;23.20;93.10
2391;DHT22;22957;50.824;4.360;2023-06-05T10:58:07;25.20;92.60
2391;DHT22;22957;50.824;4.360;2023-06-05T11:00:34;25.10;90.80
2391;DHT22;22957;50.824;4.360;2023-06-05T11:03:00;24.00;91.80
2391;DHT22;22957;50.824;4.360;2023-06-05T11:05:26;24.00;92.70
2391;DHT22;22957;50.824;4.360;2023-06-05T11:08:11;25.60;91.30
2391;DHT22;22957;50.824;4.360;2023-06-05T11:11:02;26.70;91.00
2391;DHT22;22957;50.824;4.360;2023-06-05T11:13:51;24.90;90.30
2391;DHT22;22957;50.824;4.360;2023-06-05T11:16:33;26.50;89.50
2391;DHT22;22957;50.824;4.360;2023-06-05T11:22:07;24.40;92.50
2391;DHT22;22957;50.824;4.360;2023-06-05T11:24:34;24.60;90.00
2391;DHT22;22957;50.824;4.360;2023-06-05T11:27:01;27.30;89.10
2391;DHT22;22957;50.824;4.360;2023-06-05T11:29:27;28.70;85.30
2391;DHT22;22957;50.824;4.360;2023-06-05T11:31:54;27.70;86.50
2391;DHT22;22957;50.824;4.360;2023-06-05T11:34:20;27.50;84.70
2391;DHT22;22957;50.824;4.360;2023-06-05T11:36:46;27.50;88.20
2391;DHT22;22957;50.824;4.360;2023-06-05T11:39:13;28.60;85.10
2391;DHT22;22957;50.824;4.360;2023-06-05T11:41:50;27.40;86.10
2391;DHT22;22957;50.824;4.360;2023-06-05T11:44:30;25.50;88.10
2391;DHT22;22957;50.824;4.360;2023-06-05T11:46:56;24.50;88.70
2391;DHT22;22957;50.824;4.360;2023-06-05T11:49:24;24.20;91.10
2391;DHT22;22957;50.824;4.360;2023-06-05T11:51:50;24.90;90.40
2391;DHT22;22957;50.824;4.360;2023-06-05T11:54:29;25.10;90.60
2391;DHT22;22957;50.824;4.360;2023-06-05T11:56:59;24.70;90.60
2391;DHT22;22957;50.824;4.360;2023-06-05T11:59:33;24.20;90.60
2391;DHT22;22957;50.824;4.360;2023-06-05T12:01:59;27.50;88.20
2391;DHT22;22957;50.824;4.360;2023-06-05T12:04:25;26.60;89.00
2391;DHT22;22957;50.824;4.360;2023-06-05T12:06:51;25.00;89.20
2391;DHT22;22957;50.824;4.360;2023-06-05T12:09:18;23.20;90.20
2391;DHT22;22957;50.824;4.360;2023-06-05T12:11:45;22.90;90.20
2391;DHT22;22957;50.824;4.360;2023-06-05T12:14:11;22.60;90.80
2391;DHT22;22957;50.824;4.360;2023-06-05T12:16:39;24.00;90.60
2391;DHT22;22957;50.824;4.360;2023-06-05T12:19:16;24.10;88.60
2391;DHT22;22957;50.824;4.360;2023-06-05T12:21:47;22.50;90.70
2391;DHT22;22957;50.824;4.360;2023-06-05T12:24:13;23.80;91.10
2391;DHT22;22957;50.824;4.360;2023-06-05T12:26:59;24.20;90.10
2391;DHT22;22957;50.824;4.360;2023-06-05T12:29:25;24.30;88.70
2391;DHT22;22957;50.824;4.360;2023-06-05T12:31:53;25.50;89.80
2391;DHT22;22957;50.824;4.360;2023-06-05T12:34:19;25.90;83.60
2391;DHT22;22957;50.824;4.360;2023-06-05T12:37:03;24.40;84.10
2391;DHT22;22957;50.824;4.360;2023-06-05T12:39:28;25.00;86.00
2391;DHT22;22957;50.824;4.360;2023-06-05T12:41:54;25.20;81.80
2391;DHT22;22957;50.824;4.360;2023-06-05T12:44:20;24.90;81.20
2391;DHT22;22957;50.824;4.360;2023-06-05T12:46:45;24.20;85.70
2391;DHT22;22957;50.824;4.360;2023-06-05T12:49:11;25.70;85.30
2391;DHT22;22957;50.824;4.360;2023-06-05T12:51:37;25.90;85.20
2391;DHT22;22957;50.824;4.360;2023-06-05T12:54:03;25.40;83.60
2391;DHT22;22957;50.824;4.360;2023-06-05T12:56:28;24.20;85.80
2391;DHT22;22957;50.824;4.360;2023-06-05T12:58:57;25.30;84.60
2391;DHT22;22957;50.824;4.360;2023-06-05T13:01:24;24.50;84.10
2391;DHT22;22957;50.824;4.360;2023-06-05T13:03:55;23.00;87.10
2391;DHT22;22957;50.824;4.360;2023-06-05T13:06:20;24.30;85.80
2391;DHT22;22957;50.824;4.360;2023-06-05T13:08:46;24.80;81.90
2391;DHT22;22957;50.824;4.360;2023-06-05T13:11:12;24.20;81.70
2391;DHT22;22957;50.824;4.360;2023-06-05T13:13:39;26.50;81.80
2391;DHT22;22957;50.824;4.360;2023-06-05T13:16:04;27.00;79.10
2391;DHT22;22957;50.824;4.360;2023-06-05T13:18:34;25.80;82.30
2391;DHT22;22957;50.824;4.360;2023-06-05T13:21:02;26.20;80.60
2391;DHT22;22957;50.824;4.360;2023-06-05T13:23:28;24.90;82.50
2391;DHT22;22957;50.824;4.360;2023-06-05T13:25:53;24.50;85.00
2391;DHT22;22957;50.824;4.360;2023-06-05T13:28:19;24.30;85.30
2391;DHT22;22957;50.824;4.360;2023-06-05T13:30:45;25.30;85.10
2391;DHT22;22957;50.824;4.360;2023-06-05T13:33:12;26.10;83.20
2391;DHT22;22957;50.824;4.360;2023-06-05T13:35:37;24.40;81.70
2391;DHT22;22957;50.824;4.360;2023-06-05T13:38:03;23.40;84.00
2391;DHT22;22957;50.824;4.360;2023-06-05T13:40:28;23.30;84.90
2391;DHT22;22957;50.824;4.360;2023-06-05T13:42:56;26.10;83.20
2391;DHT22;22957;50.824;4.360;2023-06-05T13:45:22;24.10;84.20
2391;DHT22;22957;50.824;4.360;2023-06-05T13:47:47;24.40;82.50
2391;DHT22;22957;50.824;4.360;2023-06-05T13:50:13;24.40;81.90
2391;DHT22;22957;50.824;4.360;2023-06-05T13:52:38;26.30;81.40
2391;DHT22;22957;50.824;4.360;2023-06-05T13:55:05;26.20;78.40
2391;DHT22;22957;50.824;4.360;2023-06-05T13:57:31;25.80;79.10
2391;DHT22;22957;50.824;4.360;2023-06-05T13:59:56;24.40;83.50
2391;DHT22;22957;50.824;4.360;2023-06-05T14:02:22;24.00;84.50
2391;DHT22;22957;50.824;4.360;2023-06-05T14:04:48;24.10;84.20
2391;DHT22;22957;50.824;4.360;2023-06-05T14:07:13;24.70;83.00
2391;DHT22;22957;50.824;4.360;2023-06-05T14:09:39;24.40;82.10
2391;DHT22;22957;50.824;4.360;2023-06-05T14:12:06;24.30;84.60
2391;DHT22;22957;50.824;4.360;2023-06-05T14:14:31;25.50;83.10
2391;DHT22;22957;50.824;4.360;2023-06-05T14:16:57;26.40;80.80
2391;DHT22;22957;50.824;4.360;2023-06-05T14:19:23;26.80;81.70
2391;DHT22;22957;50.824;4.360;2023-06-05T14:21:48;27.90;78.60
2391;DHT22;22957;50.824;4.360;2023-06-05T14:24:15;28.70;77.90
2391;DHT22;22957;50.824;4.360;2023-06-05T14:26:41;26.20;81.80
2391;DHT22;22957;50.824;4.360;2023-06-05T14:29:06;25.10;82.90
2391;DHT22;22957;50.824;4.360;2023-06-05T14:31:32;27.10;79.80
2391;DHT22;22957;50.824;4.360;2023-06-05T14:33:58;28.10;76.90
2391;DHT22;22957;50.824;4.360;2023-06-05T14:36:23;27.40;78.10
2391;DHT22;22957;50.824;4.360;2023-06-05T14:38:50;28.00;77.10
2391;DHT22;22957;50.824;4.360;2023-06-05T14:41:15;27.20;78.40
2391;DHT22;22957;50.824;4.360;2023-06-05T14:43:41;26.90;80.30
2391;DHT22;22957;50.824;4.360;2023-06-05T14:46:06;26.50;81.20
2391;DHT22;22957;50.824;4.360;2023-06-05T14:48:32;26.00;81.40
2391;DHT22;22957;50.824;4.360;2023-06-05T14:50:57;25.00;81.60
2391;DHT22;22957;50.824;4.360;2023-06-05T14:53:24;26.10;82.00
2391;DHT22;22957;50.824;4.360;2023-06-05T14:55:50;25.70;81.50
2391;DHT22;22957;50.824;4.360;2023-06-05T14:58:16;25.00;81.10
2391;DHT22;22957;50.824;4.360;2023-06-05T15:00:41;25.60;82.40
2391;DHT22;22957;50.824;4.360;2023-06-05T15:03:07;25.50;80.60
2391;DHT22;22957;50.824;4.360;2023-06-05T15:05:33;25.60;82.20
2391;DHT22;22957;50.824;4.360;2023-06-05T15:07:59;24.90;83.20
2391;DHT22;22957;50.824;4.360;2023-06-05T15:10:25;24.70;82.70
2391;DHT22;22957;50.824;4.360;2023-06-05T15:12:52;25.20;84.60
2391;DHT22;22957;50.824;4.360;2023-06-05T15:15:23;25.10;83.30
2391;DHT22;22957;50.824;4.360;2023-06-05T15:17:49;25.10;84.20
2391;DHT22;22957;50.824;4.360;2023-06-05T15:20:18;24.20;86.10
2391;DHT22;22957;50.824;4.360;2023-06-05T15:22:44;25.00;86.60
2391;DHT22;22957;50.824;4.360;2023-06-05T15:25:10;25.30;83.50
2391;DHT22;22957;50.824;4.360;2023-06-05T15:27:35;25.30;83.20
2391;DHT22;22957;50.824;4.360;2023-06-05T15:30:01;24.90;85.40
2391;DHT22;22957;50.824;4.360;2023-06-05T15:32:27;26.00;84.20
2391;DHT22;22957;50.824;4.360;2023-06-05T15:34:52;25.00;84.30
2391;DHT22;22957;50.824;4.360;2023-06-05T15:37:18;25.60;84.30
2391;DHT22;22957;50.824;4.360;2023-06-05T15:39:44;24.00;84.00
2391;DHT22;22957;50.824;4.360;2023-06-05T15:42:09;24.00;85.40
2391;DHT22;22957;50.824;4.360;2023-06-05T15:44:38;24.40;86.00
2391;DHT22;22957;50.824;4.360;2023-06-05T15:47:06;23.40;87.40
2391;DHT22;22957;50.824;4.360;2023-06-05T15:49:32;24.30;87.80
2391;DHT22;22957;50.824;4.360;2023-06-05T15:51:57;24.80;86.80
2391;DHT22;22957;50.824;4.360;2023-06-05T15:54:23;25.50;85.00
2391;DHT22;22957;50.824;4.360;2023-06-05T15:57:06;25.40;85.00
2391;DHT22;22957;50.824;4.360;2023-06-05T15:59:32;26.60;83.00
2391;DHT22;22957;50.824;4.360;2023-06-05T16:01:58;26.50;82.30
2391;DHT22;22957;50.824;4.360;2023-06-05T16:04:24;26.00;83.30
2391;DHT22;22957;50.824;4.360;2023-06-05T16:06:49;26.30;83.30